sensor_id;sensor_type;location;lat;lon;timestamp;temperature;humidity
18611;DHT22;9435;52.122;5.502;2022-10-18T00:00:10;14.00;99.90
18611;DHT22;9435;52.122;5.502;2022-10-18T00:02:37;14.00;99.90
18611;DHT22;9435;52.122;5.502;2022-10-18T00:05:05;13.90;99.90
18611;DHT22;9435;52.122;5.502;2022-10-18T00:07:33;13.80;99.90
18611;DHT22;9435;52.122;5.502;2022-10-18T00:10:01;13.80;99.90
18611;DHT22;9435;52.122;5.502;2022-10-18T00:12:28;13.80;99.90
18611;DHT22;9435;52.122;5.502;2022-10-18T00:14:55;13.90;99.90
18611;DHT22;9435;52.122;5.502;2022-10-18T00:17:22;13.90;99.90
18611;DHT22;9435;52.122;5.502;2022-10-18T00:19:49;13.90;99.90
18611;DHT22;9435;52.122;5.502;2022-10-18T00:22:16;13.90;99.90
18611;DHT22;9435;52.122;5.502;2022-10-18T00:24:44;13.90;99.90
18611;DHT22;9435;52.122;5.502;2022-10-18T00:27:11;14.00;99.90
18611;DHT22;9435;52.122;5.502;2022-10-18T00:29:38;14.00;99.90
18611;DHT22;9435;52.122;5.502;2022-10-18T00:32:05;13.90;99.90
18611;DHT22;9435;52.122;5.502;2022-10-18T00:34:32;14.00;99.90
18611;DHT22;9435;52.122;5.502;2022-10-18T00:36:59;14.00;99.90
18611;DHT22;9435;52.122;5.502;2022-10-18T00:39:26;14.00;99.90
18611;DHT22;9435;52.122;5.502;2022-10-18T00:41:54;14.00;99.90
18611;DHT22;9435;52.122;5.502;2022-10-18T00:45:00;14.00;99.90
18611;DHT22;9435;52.122;5.502;2022-10-18T00:47:27;13.90;99.90
18611;DHT22;9435;52.122;5.502;2022-10-18T00:49:56;13.90;99.90
18611;DHT22;9435;52.122;5.502;2022-10-18T00:52:28;13.90;99.90
18611;DHT22;9435;52.122;5.502;2022-10-18T00:54:56;14.00;99.90
18611;DHT22;9435;52.122;5.502;2022-10-18T00:57:25;14.00;99.90
18611;DHT22;9435;52.122;5.502;2022-10-18T00:59:52;13.90;99.90
18611;DHT22;9435;52.122;5.502;2022-10-18T01:02:20;13.90;99.90
18611;DHT22;9435;52.122;5.502;2022-10-18T01:04:47;13.90;99.90
18611;DHT22;9435;52.122;5.502;2022-10-18T01:07:22;13.90;99.90
18611;DHT22;9435;52.122;5.502;2022-10-18T01:09:56;13.90;99.90
18611;DHT22;9435;52.122;5.502;2022-10-18T01:12:33;13.90;99.90
18611;DHT22;9435;52.122;5.502;2022-10-18T01:15:08;13.90;99.90
18611;DHT22;9435;52.122;5.502;2022-10-18T01:17:46;13.90;99.90
18611;DHT22;9435;52.122;5.502;2022-10-18T01:20:34;13.90;99.90
18611;DHT22;9435;52.122;5.502;2022-10-18T01:23:07;13.90;99.90
18611;DHT22;9435;52.122;5.502;2022-10-18T01:25:49;13.90;99.90
18611;DHT22;9435;52.122;5.502;2022-10-18T01:28:33;13.80;99.90
18611;DHT22;9435;52.122;5.502;2022-10-18T01:31:03;13.80;99.90
18611;DHT22;9435;52.122;5.502;2022-10-18T01:33:36;13.80;99.90
18611;DHT22;9435;52.122;5.502;2022-10-18T01:36:08;13.70;99.90
18611;DHT22;9435;52.122;5.502;2022-10-18T01:38:38;13.80;99.90
18611;DHT22;9435;52.122;5.502;2022-10-18T01:41:08;13.80;99.90
18611;DHT22;9435;52.122;5.502;2022-10-18T01:43:36;13.80;99.90
18611;DHT22;9435;52.122;5.502;2022-10-18T01:46:07;13.80;99.90
18611;DHT22;9435;52.122;5.502;2022-10-18T01:48:35;13.80;99.90
18611;DHT22;9435;52.122;5.502;2022-10-18T01:51:03;13.80;99.90
18611;DHT22;9435;52.122;5.502;2022-10-18T01:53:32;13.80;99.90
18611;DHT22;9435;52.122;5.502;2022-10-18T01:56:29;13.80;99.90
18611;DHT22;9435;52.122;5.502;2022-10-18T01:59:10;13.70;99.90
18611;DHT22;9435;52.122;5.502;2022-10-18T02:01:49;13.70;99.90
18611;DHT22;9435;52.122;5.502;2022-10-18T02:04:26;13.70;99.90
18611;DHT22;9435;52.122;5.502;2022-10-18T02:07:00;13.70;99.90
18611;DHT22;9435;52.122;5.502;2022-10-18T02:09:34;13.60;99.90
18611;DHT22;9435;52.122;5.502;2022-10-18T02:12:06;13.70;99.90
18611;DHT22;9435;52.122;5.502;2022-10-18T02:14:35;13.60;99.90
18611;DHT22;9435;52.122;5.502;2022-10-18T02:17:06;13.60;99.90
18611;DHT22;9435;52.122;5.502;2022-10-18T02:19:37;13.60;99.90
18611;DHT22;9435;52.122;5.502;2022-10-18T02:22:07;13.50;99.90
18611;DHT22;9435;52.122;5.502;2022-10-18T02:24:37;13.50;99.90
18611;DHT22;9435;52.122;5.502;2022-10-18T02:27:04;13.40;99.90
18611;DHT22;9435;52.122;5.502;2022-10-18T02:29:32;13.40;99.90
18611;DHT22;9435;52.122;5.502;2022-10-18T02:32:05;13.40;99.90
18611;DHT22;9435;52.122;5.502;2022-10-18T02:34:36;13.30;99.90
18611;DHT22;9435;52.122;5.502;2022-10-18T02:37:05;13.30;99.90
18611;DHT22;9435;52.122;5.502;2022-10-18T02:39:35;13.30;99.90
18611;DHT22;9435;52.122;5.502;2022-10-18T02:42:03;13.30;99.90
18611;DHT22;9435;52.122;5.502;2022-10-18T02:44:31;13.30;99.90
18611;DHT22;9435;52.122;5.502;2022-10-18T02:46:59;13.30;99.90
18611;DHT22;9435;52.122;5.502;2022-10-18T02:49:27;13.30;99.90
18611;DHT22;9435;52.122;5.502;2022-10-18T02:51:54;13.30;99.90
18611;DHT22;9435;52.122;5.502;2022-10-18T02:54:22;13.20;99.90
18611;DHT22;9435;52.122;5.502;2022-10-18T02:56:49;13.30;99.90
18611;DHT22;9435;52.122;5.502;2022-10-18T02:59:17;13.30;99.90
18611;DHT22;9435;52.122;5.502;2022-10-18T03:01:44;13.20;99.90
18611;DHT22;9435;52.122;5.502;2022-10-18T03:04:11;13.20;99.90
18611;DHT22;9435;52.122;5.502;2022-10-18T03:06:39;13.20;99.90
18611;DHT22;9435;52.122;5.502;2022-10-18T03:09:06;13.20;99.90
18611;DHT22;9435;52.122;5.502;2022-10-18T03:11:33;13.10;99.90
18611;DHT22;9435;52.122;5.502;2022-10-18T03:14:00;13.10;99.90
18611;DHT22;9435;52.122;5.502;2022-10-18T03:16:27;13.10;99.90
18611;DHT22;9435;52.122;5.502;2022-10-18T03:18:54;13.10;99.90
18611;DHT22;9435;52.122;5.502;2022-10-18T03:21:21;13.00;99.90
18611;DHT22;9435;52.122;5.502;2022-10-18T03:23:49;13.00;99.90
18611;DHT22;9435;52.122;5.502;2022-10-18T03:26:16;13.00;99.90
18611;DHT22;9435;52.122;5.502;2022-10-18T03:28:43;13.00;99.90
18611;DHT22;9435;52.122;5.502;2022-10-18T03:31:10;13.00;99.90
18611;DHT22;9435;52.122;5.502;2022-10-18T03:33:37;13.00;99.90
18611;DHT22;9435;52.122;5.502;2022-10-18T03:36:04;12.90;99.90
18611;DHT22;9435;52.122;5.502;2022-10-18T03:38:31;12.90;99.90
18611;DHT22;9435;52.122;5.502;2022-10-18T03:41:00;12.90;99.90
18611;DHT22;9435;52.122;5.502;2022-10-18T03:43:27;12.80;99.90
18611;DHT22;9435;52.122;5.502;2022-10-18T03:45:54;12.90;99.90
18611;DHT22;9435;52.122;5.502;2022-10-18T03:48:21;12.80;99.90
18611;DHT22;9435;52.122;5.502;2022-10-18T03:50:48;12.80;99.90
18611;DHT22;9435;52.122;5.502;2022-10-18T03:53:15;12.80;99.90
18611;DHT22;9435;52.122;5.502;2022-10-18T03:55:42;12.80;99.90
18611;DHT22;9435;52.122;5.502;2022-10-18T03:58:10;12.70;99.90
18611;DHT22;9435;52.122;5.502;2022-10-18T04:00:37;12.70;99.90
18611;DHT22;9435;52.122;5.502;2022-10-18T04:03:04;12.70;99.90
18611;DHT22;9435;52.122;5.502;2022-10-18T04:05:31;12.60;99.90
18611;DHT22;9435;52.122;5.502;2022-10-18T04:07:59;12.60;99.90
18611;DHT22;9435;52.122;5.502;2022-10-18T04:10:26;12.60;99.90
18611;DHT22;9435;52.122;5.502;2022-10-18T04:12:53;12.60;99.90
18611;DHT22;9435;52.122;5.502;2022-10-18T04:15:21;12.60;99.90
18611;DHT22;9435;52.122;5.502;2022-10-18T04:17:48;12.50;99.90
18611;DHT22;9435;52.122;5.502;2022-10-18T04:20:16;12.50;99.90
18611;DHT22;9435;52.122;5.502;2022-10-18T04:22:43;12.50;99.90
18611;DHT22;9435;52.122;5.502;2022-10-18T04:25:10;12.50;99.90
18611;DHT22;9435;52.122;5.502;2022-10-18T04:27:37;12.40;99.90
18611;DHT22;9435;52.122;5.502;2022-10-18T04:30:05;12.30;99.90
18611;DHT22;9435;52.122;5.502;2022-10-18T04:32:33;12.30;99.90
18611;DHT22;9435;52.122;5.502;2022-10-18T04:35:00;12.30;99.90
18611;DHT22;9435;52.122;5.502;2022-10-18T04:37:27;12.20;99.90
18611;DHT22;9435;52.122;5.502;2022-10-18T04:39:54;12.20;99.90
18611;DHT22;9435;52.122;5.502;2022-10-18T04:42:21;12.10;99.90
18611;DHT22;9435;52.122;5.502;2022-10-18T04:44:48;12.10;99.90
18611;DHT22;9435;52.122;5.502;2022-10-18T04:47:16;12.10;99.90
18611;DHT22;9435;52.122;5.502;2022-10-18T04:49:44;12.10;99.90
18611;DHT22;9435;52.122;5.502;2022-10-18T04:52:11;12.10;99.90
18611;DHT22;9435;52.122;5.502;2022-10-18T04:54:38;12.10;99.90
18611;DHT22;9435;52.122;5.502;2022-10-18T04:57:05;12.10;99.90
18611;DHT22;9435;52.122;5.502;2022-10-18T04:59:32;12.00;99.90
18611;DHT22;9435;52.122;5.502;2022-10-18T05:01:59;12.00;99.90
18611;DHT22;9435;52.122;5.502;2022-10-18T05:04:26;11.90;99.90
18611;DHT22;9435;52.122;5.502;2022-10-18T05:06:54;11.90;99.90
18611;DHT22;9435;52.122;5.502;2022-10-18T05:09:21;11.90;99.90
18611;DHT22;9435;52.122;5.502;2022-10-18T05:11:49;11.90;99.90
18611;DHT22;9435;52.122;5.502;2022-10-18T05:14:16;11.90;99.90
18611;DHT22;9435;52.122;5.502;2022-10-18T05:16:43;11.90;99.90
18611;DHT22;9435;52.122;5.502;2022-10-18T05:19:10;11.90;99.90
18611;DHT22;9435;52.122;5.502;2022-10-18T05:21:37;11.90;99.90
18611;DHT22;9435;52.122;5.502;2022-10-18T05:24:06;11.90;99.90
18611;DHT22;9435;52.122;5.502;2022-10-18T05:26:33;11.90;99.90
18611;DHT22;9435;52.122;5.502;2022-10-18T05:29:00;11.90;99.90
18611;DHT22;9435;52.122;5.502;2022-10-18T05:31:27;11.80;99.90
18611;DHT22;9435;52.122;5.502;2022-10-18T05:33:54;11.80;99.90
18611;DHT22;9435;52.122;5.502;2022-10-18T05:36:21;11.80;99.90
18611;DHT22;9435;52.122;5.502;2022-10-18T05:38:50;11.70;99.90
18611;DHT22;9435;52.122;5.502;2022-10-18T05:41:19;11.70;99.90
18611;DHT22;9435;52.122;5.502;2022-10-18T05:43:46;11.70;99.90
18611;DHT22;9435;52.122;5.502;2022-10-18T05:46:13;11.70;99.90
18611;DHT22;9435;52.122;5.502;2022-10-18T05:48:40;11.70;99.90
18611;DHT22;9435;52.122;5.502;2022-10-18T05:51:07;11.60;99.90
18611;DHT22;9435;52.122;5.502;2022-10-18T05:53:34;11.70;99.90
18611;DHT22;9435;52.122;5.502;2022-10-18T05:56:02;11.70;99.90
18611;DHT22;9435;52.122;5.502;2022-10-18T05:58:30;11.70;99.90
18611;DHT22;9435;52.122;5.502;2022-10-18T06:00:58;11.70;99.90
18611;DHT22;9435;52.122;5.502;2022-10-18T06:03:25;11.70;99.90
18611;DHT22;9435;52.122;5.502;2022-10-18T06:05:58;11.70;99.90
18611;DHT22;9435;52.122;5.502;2022-10-18T06:08:25;11.70;99.90
18611;DHT22;9435;52.122;5.502;2022-10-18T06:10:52;11.60;99.90
18611;DHT22;9435;52.122;5.502;2022-10-18T06:13:19;11.50;99.90
18611;DHT22;9435;52.122;5.502;2022-10-18T06:15:47;11.50;99.90
18611;DHT22;9435;52.122;5.502;2022-10-18T06:18:16;11.50;99.90
18611;DHT22;9435;52.122;5.502;2022-10-18T06:20:43;11.40;99.90
18611;DHT22;9435;52.122;5.502;2022-10-18T06:23:09;11.30;99.90
18611;DHT22;9435;52.122;5.502;2022-10-18T06:25:37;11.30;99.90
18611;DHT22;9435;52.122;5.502;2022-10-18T06:28:05;11.30;99.90
18611;DHT22;9435;52.122;5.502;2022-10-18T06:30:32;11.40;99.90
18611;DHT22;9435;52.122;5.502;2022-10-18T06:33:01;11.30;99.90
18611;DHT22;9435;52.122;5.502;2022-10-18T06:35:28;11.30;99.90
18611;DHT22;9435;52.122;5.502;2022-10-18T06:37:55;11.30;99.90
18611;DHT22;9435;52.122;5.502;2022-10-18T06:40:22;11.40;99.90
18611;DHT22;9435;52.122;5.502;2022-10-18T06:42:49;11.30;99.90
18611;DHT22;9435;52.122;5.502;2022-10-18T06:45:16;11.20;99.90
18611;DHT22;9435;52.122;5.502;2022-10-18T06:47:43;11.20;99.90
18611;DHT22;9435;52.122;5.502;2022-10-18T06:50:11;11.20;99.90
18611;DHT22;9435;52.122;5.502;2022-10-18T06:52:39;11.30;99.90
18611;DHT22;9435;52.122;5.502;2022-10-18T06:55:07;11.30;99.90
18611;DHT22;9435;52.122;5.502;2022-10-18T06:57:34;11.30;99.90
18611;DHT22;9435;52.122;5.502;2022-10-18T07:00:02;11.30;99.90
18611;DHT22;9435;52.122;5.502;2022-10-18T07:02:30;11.30;99.90
18611;DHT22;9435;52.122;5.502;2022-10-18T07:04:57;11.40;99.90
18611;DHT22;9435;52.122;5.502;2022-10-18T07:07:25;11.40;99.90
18611;DHT22;9435;52.122;5.502;2022-10-18T07:09:52;11.40;99.90
18611;DHT22;9435;52.122;5.502;2022-10-18T07:12:19;11.40;99.90
18611;DHT22;9435;52.122;5.502;2022-10-18T07:14:46;11.40;99.90
18611;DHT22;9435;52.122;5.502;2022-10-18T07:17:13;11.40;99.90
18611;DHT22;9435;52.122;5.502;2022-10-18T07:19:40;11.50;99.90
18611;DHT22;9435;52.122;5.502;2022-10-18T07:22:07;11.50;99.90
18611;DHT22;9435;52.122;5.502;2022-10-18T07:24:36;11.40;99.90
18611;DHT22;9435;52.122;5.502;2022-10-18T07:27:03;11.50;99.90
18611;DHT22;9435;52.122;5.502;2022-10-18T07:29:30;11.50;99.90
18611;DHT22;9435;52.122;5.502;2022-10-18T07:31:57;11.60;99.90
18611;DHT22;9435;52.122;5.502;2022-10-18T07:34:24;11.60;99.90
18611;DHT22;9435;52.122;5.502;2022-10-18T07:36:53;11.70;99.90
18611;DHT22;9435;52.122;5.502;2022-10-18T07:39:20;11.70;99.90
18611;DHT22;9435;52.122;5.502;2022-10-18T07:41:48;11.70;99.90
18611;DHT22;9435;52.122;5.502;2022-10-18T07:44:15;11.80;99.90
18611;DHT22;9435;52.122;5.502;2022-10-18T07:46:42;11.80;99.90
18611;DHT22;9435;52.122;5.502;2022-10-18T07:49:09;11.90;99.90
18611;DHT22;9435;52.122;5.502;2022-10-18T07:51:36;11.90;99.90
18611;DHT22;9435;52.122;5.502;2022-10-18T07:54:03;12.00;99.90
18611;DHT22;9435;52.122;5.502;2022-10-18T07:56:30;12.00;99.90
18611;DHT22;9435;52.122;5.502;2022-10-18T07:58:58;12.10;99.90
18611;DHT22;9435;52.122;5.502;2022-10-18T08:01:25;12.10;99.90
18611;DHT22;9435;52.122;5.502;2022-10-18T08:03:53;12.10;99.90
18611;DHT22;9435;52.122;5.502;2022-10-18T08:06:21;12.20;99.90
18611;DHT22;9435;52.122;5.502;2022-10-18T08:08:48;12.20;99.90
18611;DHT22;9435;52.122;5.502;2022-10-18T08:11:17;12.30;99.90
18611;DHT22;9435;52.122;5.502;2022-10-18T08:13:45;12.30;99.90
18611;DHT22;9435;52.122;5.502;2022-10-18T08:16:15;12.40;99.90
18611;DHT22;9435;52.122;5.502;2022-10-18T08:18:42;12.40;99.90
18611;DHT22;9435;52.122;5.502;2022-10-18T08:21:11;12.50;99.90
18611;DHT22;9435;52.122;5.502;2022-10-18T08:23:38;12.50;99.90
18611;DHT22;9435;52.122;5.502;2022-10-18T08:26:07;12.50;99.90
18611;DHT22;9435;52.122;5.502;2022-10-18T08:28:35;12.50;99.90
18611;DHT22;9435;52.122;5.502;2022-10-18T08:31:02;12.50;99.90
18611;DHT22;9435;52.122;5.502;2022-10-18T08:33:31;12.60;99.90
18611;DHT22;9435;52.122;5.502;2022-10-18T08:36:00;12.70;99.90
18611;DHT22;9435;52.122;5.502;2022-10-18T08:38:30;12.80;99.90
18611;DHT22;9435;52.122;5.502;2022-10-18T08:40:58;12.90;99.90
18611;DHT22;9435;52.122;5.502;2022-10-18T08:43:32;13.00;99.90
18611;DHT22;9435;52.122;5.502;2022-10-18T08:46:01;13.10;99.90
18611;DHT22;9435;52.122;5.502;2022-10-18T08:48:34;13.20;99.90
18611;DHT22;9435;52.122;5.502;2022-10-18T08:51:03;13.20;99.90
18611;DHT22;9435;52.122;5.502;2022-10-18T08:53:38;13.30;99.90
18611;DHT22;9435;52.122;5.502;2022-10-18T08:56:10;13.40;99.90
18611;DHT22;9435;52.122;5.502;2022-10-18T08:58:40;13.40;99.90
18611;DHT22;9435;52.122;5.502;2022-10-18T09:01:22;13.50;99.90
18611;DHT22;9435;52.122;5.502;2022-10-18T09:04:10;13.50;99.90
18611;DHT22;9435;52.122;5.502;2022-10-18T09:06:48;13.60;99.90
18611;DHT22;9435;52.122;5.502;2022-10-18T09:09:27;13.70;99.90
18611;DHT22;9435;52.122;5.502;2022-10-18T09:12:06;13.80;99.90
18611;DHT22;9435;52.122;5.502;2022-10-18T09:14:47;13.80;99.90
18611;DHT22;9435;52.122;5.502;2022-10-18T09:17:27;13.90;99.90
18611;DHT22;9435;52.122;5.502;2022-10-18T09:20:06;13.90;99.90
18611;DHT22;9435;52.122;5.502;2022-10-18T09:22:45;14.10;99.90
18611;DHT22;9435;52.122;5.502;2022-10-18T09:25:17;14.20;99.90
18611;DHT22;9435;52.122;5.502;2022-10-18T09:27:51;14.30;99.90
18611;DHT22;9435;52.122;5.502;2022-10-18T09:30:25;14.40;99.90
18611;DHT22;9435;52.122;5.502;2022-10-18T09:33:01;14.40;99.90
18611;DHT22;9435;52.122;5.502;2022-10-18T09:35:37;14.50;99.90
18611;DHT22;9435;52.122;5.502;2022-10-18T09:38:10;14.60;99.90
18611;DHT22;9435;52.122;5.502;2022-10-18T09:40:47;14.60;99.90
18611;DHT22;9435;52.122;5.502;2022-10-18T09:43:18;14.70;99.90
18611;DHT22;9435;52.122;5.502;2022-10-18T09:45:47;14.80;99.90
18611;DHT22;9435;52.122;5.502;2022-10-18T09:48:17;14.90;99.90
18611;DHT22;9435;52.122;5.502;2022-10-18T09:50:51;15.00;99.90
18611;DHT22;9435;52.122;5.502;2022-10-18T09:53:26;15.00;99.90
18611;DHT22;9435;52.122;5.502;2022-10-18T09:56:00;15.00;99.90
18611;DHT22;9435;52.122;5.502;2022-10-18T09:58:38;15.10;99.90
18611;DHT22;9435;52.122;5.502;2022-10-18T10:01:06;15.10;99.90
18611;DHT22;9435;52.122;5.502;2022-10-18T10:03:34;15.10;99.90
18611;DHT22;9435;52.122;5.502;2022-10-18T10:06:21;15.10;99.90
18611;DHT22;9435;52.122;5.502;2022-10-18T10:08:54;15.20;99.90
18611;DHT22;9435;52.122;5.502;2022-10-18T10:11:42;15.30;99.90
18611;DHT22;9435;52.122;5.502;2022-10-18T10:14:15;15.30;99.90
18611;DHT22;9435;52.122;5.502;2022-10-18T10:16:47;15.30;99.90
18611;DHT22;9435;52.122;5.502;2022-10-18T10:19:17;15.40;99.90
18611;DHT22;9435;52.122;5.502;2022-10-18T10:21:46;15.40;99.90
18611;DHT22;9435;52.122;5.502;2022-10-18T10:24:22;15.40;99.90
18611;DHT22;9435;52.122;5.502;2022-10-18T10:26:52;15.40;99.90
18611;DHT22;9435;52.122;5.502;2022-10-18T10:29:50;15.50;99.90
18611;DHT22;9435;52.122;5.502;2022-10-18T10:32:21;15.50;99.90
18611;DHT22;9435;52.122;5.502;2022-10-18T10:34:48;15.60;99.90
18611;DHT22;9435;52.122;5.502;2022-10-18T10:37:32;15.60;99.90
18611;DHT22;9435;52.122;5.502;2022-10-18T10:40:17;15.60;99.90
18611;DHT22;9435;52.122;5.502;2022-10-18T10:42:56;15.60;99.90
18611;DHT22;9435;52.122;5.502;2022-10-18T10:45:28;15.60;99.90
18611;DHT22;9435;52.122;5.502;2022-10-18T10:48:06;15.60;99.90
18611;DHT22;9435;52.122;5.502;2022-10-18T10:50:48;15.60;99.90
18611;DHT22;9435;52.122;5.502;2022-10-18T10:53:45;15.60;99.90
18611;DHT22;9435;52.122;5.502;2022-10-18T10:56:22;15.60;99.90
18611;DHT22;9435;52.122;5.502;2022-10-18T10:58:51;15.70;99.90
18611;DHT22;9435;52.122;5.502;2022-10-18T11:01:25;15.70;99.90
18611;DHT22;9435;52.122;5.502;2022-10-18T11:03:54;15.80;99.90
18611;DHT22;9435;52.122;5.502;2022-10-18T11:06:46;15.80;99.90
18611;DHT22;9435;52.122;5.502;2022-10-18T11:09:43;15.80;99.90
18611;DHT22;9435;52.122;5.502;2022-10-18T11:12:25;15.80;99.90
18611;DHT22;9435;52.122;5.502;2022-10-18T11:15:02;15.80;99.90
18611;DHT22;9435;52.122;5.502;2022-10-18T11:17:40;15.80;99.90
18611;DHT22;9435;52.122;5.502;2022-10-18T11:20:21;15.80;99.90
18611;DHT22;9435;52.122;5.502;2022-10-18T11:23:00;15.80;99.90
18611;DHT22;9435;52.122;5.502;2022-10-18T11:28:48;15.70;99.90
18611;DHT22;9435;52.122;5.502;2022-10-18T11:31:26;15.70;99.90
18611;DHT22;9435;52.122;5.502;2022-10-18T11:34:07;15.80;99.90
18611;DHT22;9435;52.122;5.502;2022-10-18T11:36:47;15.80;99.90
18611;DHT22;9435;52.122;5.502;2022-10-18T11:39:23;15.70;99.90
18611;DHT22;9435;52.122;5.502;2022-10-18T11:41:57;15.80;99.90
18611;DHT22;9435;52.122;5.502;2022-10-18T11:44:36;15.80;99.90
18611;DHT22;9435;52.122;5.502;2022-10-18T11:47:09;15.80;99.90
18611;DHT22;9435;52.122;5.502;2022-10-18T11:49:55;15.70;99.90
18611;DHT22;9435;52.122;5.502;2022-10-18T11:52:29;15.70;99.90
18611;DHT22;9435;52.122;5.502;2022-10-18T11:55:09;15.80;99.90
18611;DHT22;9435;52.122;5.502;2022-10-18T11:57:43;15.80;99.90
18611;DHT22;9435;52.122;5.502;2022-10-18T12:00:23;15.90;99.90
18611;DHT22;9435;52.122;5.502;2022-10-18T12:03:12;16.00;99.90
18611;DHT22;9435;52.122;5.502;2022-10-18T12:05:43;15.90;99.90
18611;DHT22;9435;52.122;5.502;2022-10-18T12:08:14;16.00;99.90
18611;DHT22;9435;52.122;5.502;2022-10-18T12:10:44;16.00;99.90
18611;DHT22;9435;52.122;5.502;2022-10-18T12:13:16;16.00;99.90
18611;DHT22;9435;52.122;5.502;2022-10-18T12:15:46;16.00;99.90
18611;DHT22;9435;52.122;5.502;2022-10-18T12:18:16;15.90;99.90
18611;DHT22;9435;52.122;5.502;2022-10-18T12:20:46;16.00;99.90
18611;DHT22;9435;52.122;5.502;2022-10-18T12:23:16;15.90;99.90
18611;DHT22;9435;52.122;5.502;2022-10-18T12:25:49;15.90;99.90
18611;DHT22;9435;52.122;5.502;2022-10-18T12:28:27;15.90;99.90
18611;DHT22;9435;52.122;5.502;2022-10-18T12:31:03;15.80;99.90
18611;DHT22;9435;52.122;5.502;2022-10-18T12:33:36;15.80;99.90
18611;DHT22;9435;52.122;5.502;2022-10-18T12:36:10;15.80;99.90
18611;DHT22;9435;52.122;5.502;2022-10-18T12:38:40;15.80;99.90
18611;DHT22;9435;52.122;5.502;2022-10-18T12:41:17;15.80;99.90
18611;DHT22;9435;52.122;5.502;2022-10-18T12:43:50;15.70;99.90
18611;DHT22;9435;52.122;5.502;2022-10-18T12:46:20;15.70;99.90
18611;DHT22;9435;52.122;5.502;2022-10-18T12:48:58;15.70;99.90
18611;DHT22;9435;52.122;5.502;2022-10-18T12:51:27;15.70;99.90
18611;DHT22;9435;52.122;5.502;2022-10-18T12:54:08;15.60;99.90
18611;DHT22;9435;52.122;5.502;2022-10-18T12:56:38;15.60;99.90
18611;DHT22;9435;52.122;5.502;2022-10-18T13:02:26;15.60;99.90
18611;DHT22;9435;52.122;5.502;2022-10-18T13:04:53;15.60;99.90
18611;DHT22;9435;52.122;5.502;2022-10-18T13:07:33;15.60;99.90
18611;DHT22;9435;52.122;5.502;2022-10-18T13:10:38;15.60;99.90
18611;DHT22;9435;52.122;5.502;2022-10-18T13:16:28;15.50;99.90
18611;DHT22;9435;52.122;5.502;2022-10-18T13:19:00;15.70;99.90
18611;DHT22;9435;52.122;5.502;2022-10-18T13:21:43;15.70;99.90
18611;DHT22;9435;52.122;5.502;2022-10-18T13:24:23;15.70;99.90
18611;DHT22;9435;52.122;5.502;2022-10-18T13:27:09;15.70;99.90
18611;DHT22;9435;52.122;5.502;2022-10-18T13:32:34;15.60;99.90
18611;DHT22;9435;52.122;5.502;2022-10-18T13:38:38;15.50;99.90
18611;DHT22;9435;52.122;5.502;2022-10-18T13:41:10;15.40;99.90
18611;DHT22;9435;52.122;5.502;2022-10-18T13:44:08;15.50;99.90
18611;DHT22;9435;52.122;5.502;2022-10-18T13:59:04;15.70;99.90
18611;DHT22;9435;52.122;5.502;2022-10-18T14:01:39;15.60;99.90
18611;DHT22;9435;52.122;5.502;2022-10-18T14:04:35;15.70;99.90
18611;DHT22;9435;52.122;5.502;2022-10-18T14:07:05;15.70;99.90
18611;DHT22;9435;52.122;5.502;2022-10-18T14:09:34;15.70;99.90
18611;DHT22;9435;52.122;5.502;2022-10-18T14:12:16;15.70;99.90
18611;DHT22;9435;52.122;5.502;2022-10-18T14:14:50;15.80;99.90
18611;DHT22;9435;52.122;5.502;2022-10-18T14:17:27;16.00;99.90
18611;DHT22;9435;52.122;5.502;2022-10-18T14:19:59;15.90;99.90
18611;DHT22;9435;52.122;5.502;2022-10-18T14:22:33;16.00;99.90
18611;DHT22;9435;52.122;5.502;2022-10-18T14:25:00;16.10;99.90
18611;DHT22;9435;52.122;5.502;2022-10-18T14:27:30;16.10;99.90
18611;DHT22;9435;52.122;5.502;2022-10-18T14:30:09;16.00;99.90
18611;DHT22;9435;52.122;5.502;2022-10-18T14:32:40;15.90;99.90
18611;DHT22;9435;52.122;5.502;2022-10-18T14:35:15;15.90;99.90
18611;DHT22;9435;52.122;5.502;2022-10-18T14:37:45;15.80;99.90
18611;DHT22;9435;52.122;5.502;2022-10-18T14:40:27;15.80;99.90
18611;DHT22;9435;52.122;5.502;2022-10-18T14:42:57;15.80;99.90
18611;DHT22;9435;52.122;5.502;2022-10-18T14:45:26;15.70;99.90
18611;DHT22;9435;52.122;5.502;2022-10-18T14:47:53;15.70;99.90
18611;DHT22;9435;52.122;5.502;2022-10-18T14:50:22;15.70;99.90
18611;DHT22;9435;52.122;5.502;2022-10-18T14:52:49;15.70;99.90
18611;DHT22;9435;52.122;5.502;2022-10-18T14:55:20;15.70;99.90
18611;DHT22;9435;52.122;5.502;2022-10-18T14:57:49;15.60;99.90
18611;DHT22;9435;52.122;5.502;2022-10-18T15:00:20;15.60;99.90
18611;DHT22;9435;52.122;5.502;2022-10-18T15:02:50;15.50;99.90
18611;DHT22;9435;52.122;5.502;2022-10-18T15:05:19;15.50;99.90
18611;DHT22;9435;52.122;5.502;2022-10-18T15:07:48;15.50;99.90
18611;DHT22;9435;52.122;5.502;2022-10-18T15:10:18;15.50;99.90
18611;DHT22;9435;52.122;5.502;2022-10-18T15:12:46;15.40;99.90
18611;DHT22;9435;52.122;5.502;2022-10-18T15:15:19;15.40;99.90
18611;DHT22;9435;52.122;5.502;2022-10-18T15:17:47;15.40;99.90
18611;DHT22;9435;52.122;5.502;2022-10-18T15:20:20;15.30;99.90
18611;DHT22;9435;52.122;5.502;2022-10-18T15:22:47;15.30;99.90
18611;DHT22;9435;52.122;5.502;2022-10-18T15:25:16;15.20;99.90
18611;DHT22;9435;52.122;5.502;2022-10-18T15:27:45;15.10;99.90
18611;DHT22;9435;52.122;5.502;2022-10-18T15:30:24;15.10;99.90
18611;DHT22;9435;52.122;5.502;2022-10-18T15:32:54;15.10;99.90
18611;DHT22;9435;52.122;5.502;2022-10-18T15:35:25;15.10;99.90
18611;DHT22;9435;52.122;5.502;2022-10-18T15:37:53;15.00;99.90
18611;DHT22;9435;52.122;5.502;2022-10-18T15:40:36;15.00;99.90
18611;DHT22;9435;52.122;5.502;2022-10-18T15:43:05;14.80;99.90
18611;DHT22;9435;52.122;5.502;2022-10-18T15:45:55;14.80;99.90
18611;DHT22;9435;52.122;5.502;2022-10-18T15:48:24;14.70;99.90
18611;DHT22;9435;52.122;5.502;2022-10-18T15:50:52;14.70;99.90
18611;DHT22;9435;52.122;5.502;2022-10-18T15:53:34;14.70;99.90
18611;DHT22;9435;52.122;5.502;2022-10-18T15:56:04;14.70;99.90
18611;DHT22;9435;52.122;5.502;2022-10-18T15:58:38;14.60;99.90
18611;DHT22;9435;52.122;5.502;2022-10-18T16:01:13;14.60;99.90
18611;DHT22;9435;52.122;5.502;2022-10-18T16:03:41;14.50;99.90
18611;DHT22;9435;52.122;5.502;2022-10-18T16:06:10;14.40;99.90
18611;DHT22;9435;52.122;5.502;2022-10-18T16:08:39;14.40;99.90
18611;DHT22;9435;52.122;5.502;2022-10-18T16:11:08;14.30;99.90
18611;DHT22;9435;52.122;5.502;2022-10-18T16:13:38;14.20;99.90
18611;DHT22;9435;52.122;5.502;2022-10-18T16:16:08;14.20;99.90
18611;DHT22;9435;52.122;5.502;2022-10-18T16:18:36;14.30;99.90
18611;DHT22;9435;52.122;5.502;2022-10-18T16:21:04;14.40;99.90
18611;DHT22;9435;52.122;5.502;2022-10-18T16:23:31;14.40;99.90
18611;DHT22;9435;52.122;5.502;2022-10-18T16:25:58;14.40;99.90
18611;DHT22;9435;52.122;5.502;2022-10-18T16:28:25;14.40;99.90
18611;DHT22;9435;52.122;5.502;2022-10-18T16:30:55;14.40;99.90
18611;DHT22;9435;52.122;5.502;2022-10-18T16:33:24;14.40;99.90
18611;DHT22;9435;52.122;5.502;2022-10-18T16:35:52;14.40;99.90
18611;DHT22;9435;52.122;5.502;2022-10-18T16:38:24;14.30;99.90